sensor_id;sensor_type;location;lat;lon;timestamp;temperature;humidity
11387;DHT22;5748;53.102;8.456;2024-02-21T00:00:04;13.30;71.50
11387;DHT22;5748;53.102;8.456;2024-02-21T00:02:32;13.20;71.40
11387;DHT22;5748;53.102;8.456;2024-02-21T00:04:59;13.20;71.40
11387;DHT22;5748;53.102;8.456;2024-02-21T00:07:26;13.20;71.00
11387;DHT22;5748;53.102;8.456;2024-02-21T00:09:53;13.20;71.40
11387;DHT22;5748;53.102;8.456;2024-02-21T00:12:21;13.20;71.30
11387;DHT22;5748;53.102;8.456;2024-02-21T00:14:48;13.30;71.50
11387;DHT22;5748;53.102;8.456;2024-02-21T00:17:15;13.20;70.90
11387;DHT22;5748;53.102;8.456;2024-02-21T00:19:42;13.20;71.40
11387;DHT22;5748;53.102;8.456;2024-02-21T00:22:09;13.20;72.00
11387;DHT22;5748;53.102;8.456;2024-02-21T00:24:37;13.20;71.40
11387;DHT22;5748;53.102;8.456;2024-02-21T00:27:04;13.20;71.40
11387;DHT22;5748;53.102;8.456;2024-02-21T00:29:33;13.20;71.50
11387;DHT22;5748;53.102;8.456;2024-02-21T00:32:00;13.20;71.40
11387;DHT22;5748;53.102;8.456;2024-02-21T00:34:27;13.20;71.30
11387;DHT22;5748;53.102;8.456;2024-02-21T00:36:54;13.20;71.40
11387;DHT22;5748;53.102;8.456;2024-02-21T00:39:21;13.30;71.50
11387;DHT22;5748;53.102;8.456;2024-02-21T00:41:48;13.30;71.40
11387;DHT22;5748;53.102;8.456;2024-02-21T00:44:15;13.30;71.40
11387;DHT22;5748;53.102;8.456;2024-02-21T00:46:44;13.40;71.50
11387;DHT22;5748;53.102;8.456;2024-02-21T00:49:12;13.30;71.40
11387;DHT22;5748;53.102;8.456;2024-02-21T00:51:39;13.30;71.30
11387;DHT22;5748;53.102;8.456;2024-02-21T00:54:06;13.20;71.30
11387;DHT22;5748;53.102;8.456;2024-02-21T00:56:33;13.30;71.40
11387;DHT22;5748;53.102;8.456;2024-02-21T00:59:00;13.20;71.30
11387;DHT22;5748;53.102;8.456;2024-02-21T01:01:27;13.30;71.50
11387;DHT22;5748;53.102;8.456;2024-02-21T01:03:55;13.30;71.40
11387;DHT22;5748;53.102;8.456;2024-02-21T01:06:22;13.30;71.40
11387;DHT22;5748;53.102;8.456;2024-02-21T01:08:50;13.30;71.40
11387;DHT22;5748;53.102;8.456;2024-02-21T01:11:17;13.30;71.40
11387;DHT22;5748;53.102;8.456;2024-02-21T01:13:44;13.30;71.50
11387;DHT22;5748;53.102;8.456;2024-02-21T01:16:11;13.20;71.30
11387;DHT22;5748;53.102;8.456;2024-02-21T01:18:38;13.30;72.10
11387;DHT22;5748;53.102;8.456;2024-02-21T01:21:07;13.30;71.40
11387;DHT22;5748;53.102;8.456;2024-02-21T01:23:35;13.30;71.40
11387;DHT22;5748;53.102;8.456;2024-02-21T01:26:03;13.30;71.50
11387;DHT22;5748;53.102;8.456;2024-02-21T01:28:33;13.40;71.50
11387;DHT22;5748;53.102;8.456;2024-02-21T01:31:01;13.40;72.20
11387;DHT22;5748;53.102;8.456;2024-02-21T01:33:28;13.30;71.40
11387;DHT22;5748;53.102;8.456;2024-02-21T01:36:00;13.30;71.40
11387;DHT22;5748;53.102;8.456;2024-02-21T01:38:28;13.40;71.50
11387;DHT22;5748;53.102;8.456;2024-02-21T01:40:57;13.30;71.30
11387;DHT22;5748;53.102;8.456;2024-02-21T01:43:24;13.30;71.30
11387;DHT22;5748;53.102;8.456;2024-02-21T01:45:52;13.30;71.30
11387;DHT22;5748;53.102;8.456;2024-02-21T01:48:22;13.30;71.30
11387;DHT22;5748;53.102;8.456;2024-02-21T01:50:50;13.30;72.00
11387;DHT22;5748;53.102;8.456;2024-02-21T01:53:21;13.30;71.30
11387;DHT22;5748;53.102;8.456;2024-02-21T01:55:50;13.40;71.30
11387;DHT22;5748;53.102;8.456;2024-02-21T01:58:19;13.30;71.20
11387;DHT22;5748;53.102;8.456;2024-02-21T02:00:47;13.30;71.20
11387;DHT22;5748;53.102;8.456;2024-02-21T02:03:15;13.30;71.20
11387;DHT22;5748;53.102;8.456;2024-02-21T02:05:44;13.30;71.20
11387;DHT22;5748;53.102;8.456;2024-02-21T02:08:12;13.20;71.20
11387;DHT22;5748;53.102;8.456;2024-02-21T02:10:39;13.20;71.20
11387;DHT22;5748;53.102;8.456;2024-02-21T02:13:08;13.20;71.30
11387;DHT22;5748;53.102;8.456;2024-02-21T02:15:38;13.20;71.30
11387;DHT22;5748;53.102;8.456;2024-02-21T02:18:06;13.30;71.40
11387;DHT22;5748;53.102;8.456;2024-02-21T02:20:33;13.20;71.30
11387;DHT22;5748;53.102;8.456;2024-02-21T02:23:05;13.20;71.30
11387;DHT22;5748;53.102;8.456;2024-02-21T02:25:35;13.20;71.30
11387;DHT22;5748;53.102;8.456;2024-02-21T02:28:03;13.30;71.30
11387;DHT22;5748;53.102;8.456;2024-02-21T02:30:32;13.30;71.30
11387;DHT22;5748;53.102;8.456;2024-02-21T02:33:00;13.30;71.30
11387;DHT22;5748;53.102;8.456;2024-02-21T02:35:27;13.30;71.30
11387;DHT22;5748;53.102;8.456;2024-02-21T02:37:54;13.30;71.30
11387;DHT22;5748;53.102;8.456;2024-02-21T02:40:21;13.30;72.10
11387;DHT22;5748;53.102;8.456;2024-02-21T02:42:49;13.30;71.30
11387;DHT22;5748;53.102;8.456;2024-02-21T02:45:17;13.30;71.40
11387;DHT22;5748;53.102;8.456;2024-02-21T02:47:44;13.30;71.40
11387;DHT22;5748;53.102;8.456;2024-02-21T02:50:12;13.30;70.80
11387;DHT22;5748;53.102;8.456;2024-02-21T02:52:40;13.30;70.90
11387;DHT22;5748;53.102;8.456;2024-02-21T02:55:07;13.30;71.40
11387;DHT22;5748;53.102;8.456;2024-02-21T02:57:36;13.30;71.30
11387;DHT22;5748;53.102;8.456;2024-02-21T03:00:06;13.30;70.80
11387;DHT22;5748;53.102;8.456;2024-02-21T03:02:34;13.30;71.30
11387;DHT22;5748;53.102;8.456;2024-02-21T03:05:01;13.30;72.00
11387;DHT22;5748;53.102;8.456;2024-02-21T03:07:38;13.30;71.30
11387;DHT22;5748;53.102;8.456;2024-02-21T03:10:05;13.30;71.30
11387;DHT22;5748;53.102;8.456;2024-02-21T03:12:33;13.30;70.80
11387;DHT22;5748;53.102;8.456;2024-02-21T03:15:00;13.30;70.90
11387;DHT22;5748;53.102;8.456;2024-02-21T03:19:55;13.30;71.00
11387;DHT22;5748;53.102;8.456;2024-02-21T03:22:23;13.30;71.50
11387;DHT22;5748;53.102;8.456;2024-02-21T03:24:50;13.30;71.40
11387;DHT22;5748;53.102;8.456;2024-02-21T03:27:17;13.30;71.40
11387;DHT22;5748;53.102;8.456;2024-02-21T03:29:44;13.20;70.80
11387;DHT22;5748;53.102;8.456;2024-02-21T03:32:11;11.00;68.60
11387;DHT22;5748;53.102;8.456;2024-02-21T03:37:06;13.20;70.90
11387;DHT22;5748;53.102;8.456;2024-02-21T03:39:33;13.20;71.50
11387;DHT22;5748;53.102;8.456;2024-02-21T03:44:30;13.10;71.00
11387;DHT22;5748;53.102;8.456;2024-02-21T03:52:59;13.70;72.70
11387;DHT22;5748;53.102;8.456;2024-02-21T03:59:46;13.00;71.10
11387;DHT22;5748;53.102;8.456;2024-02-21T04:02:13;12.90;72.80
11387;DHT22;5748;53.102;8.456;2024-02-21T04:04:46;12.90;71.30
11387;DHT22;5748;53.102;8.456;2024-02-21T04:07:17;12.90;71.70
11387;DHT22;5748;53.102;8.456;2024-02-21T04:09:47;12.90;72.50
11387;DHT22;5748;53.102;8.456;2024-02-21T04:12:33;13.00;75.70
11387;DHT22;5748;53.102;8.456;2024-02-21T04:15:00;12.80;72.60
11387;DHT22;5748;53.102;8.456;2024-02-21T04:17:28;12.90;74.00
11387;DHT22;5748;53.102;8.456;2024-02-21T04:20:02;8.70;68.90
11387;DHT22;5748;53.102;8.456;2024-02-21T04:22:32;12.70;71.90
11387;DHT22;5748;53.102;8.456;2024-02-21T04:25:00;12.80;74.90
11387;DHT22;5748;53.102;8.456;2024-02-21T04:27:27;12.70;72.70
11387;DHT22;5748;53.102;8.456;2024-02-21T04:33:45;12.70;72.00
11387;DHT22;5748;53.102;8.456;2024-02-21T04:36:12;14.40;74.60
11387;DHT22;5748;53.102;8.456;2024-02-21T04:38:40;12.70;74.30
11387;DHT22;5748;53.102;8.456;2024-02-21T04:43:35;12.70;72.20
11387;DHT22;5748;53.102;8.456;2024-02-21T04:48:29;12.60;72.10
11387;DHT22;5748;53.102;8.456;2024-02-21T04:50:57;12.60;74.80
11387;DHT22;5748;53.102;8.456;2024-02-21T04:55:52;12.60;72.10
11387;DHT22;5748;53.102;8.456;2024-02-21T04:58:20;12.70;75.50
11387;DHT22;5748;53.102;8.456;2024-02-21T05:00:55;12.70;72.80
11387;DHT22;5748;53.102;8.456;2024-02-21T05:10:09;12.90;73.50
11387;DHT22;5748;53.102;8.456;2024-02-21T05:17:05;12.70;72.40
11387;DHT22;5748;53.102;8.456;2024-02-21T05:19:53;13.00;73.40
11387;DHT22;5748;53.102;8.456;2024-02-21T05:25:48;12.70;73.20
11387;DHT22;5748;53.102;8.456;2024-02-21T05:28:15;12.70;72.80
11387;DHT22;5748;53.102;8.456;2024-02-21T05:30:43;12.60;72.70
11387;DHT22;5748;53.102;8.456;2024-02-21T05:33:10;11.10;71.40
11387;DHT22;5748;53.102;8.456;2024-02-21T05:35:38;12.60;73.00
11387;DHT22;5748;53.102;8.456;2024-02-21T05:38:05;12.60;73.00
11387;DHT22;5748;53.102;8.456;2024-02-21T05:40:37;12.60;72.50
11387;DHT22;5748;53.102;8.456;2024-02-21T05:43:04;12.60;73.00
11387;DHT22;5748;53.102;8.456;2024-02-21T05:45:31;12.70;73.00
11387;DHT22;5748;53.102;8.456;2024-02-21T05:48:04;12.60;73.10
11387;DHT22;5748;53.102;8.456;2024-02-21T05:50:32;12.70;72.70
11387;DHT22;5748;53.102;8.456;2024-02-21T05:52:59;12.70;74.80
11387;DHT22;5748;53.102;8.456;2024-02-21T05:55:26;12.80;75.20
11387;DHT22;5748;53.102;8.456;2024-02-21T05:57:56;12.70;74.10
11387;DHT22;5748;53.102;8.456;2024-02-21T06:14:03;12.70;72.70
11387;DHT22;5748;53.102;8.456;2024-02-21T06:16:34;13.50;74.70
11387;DHT22;5748;53.102;8.456;2024-02-21T06:19:02;12.80;76.60
11387;DHT22;5748;53.102;8.456;2024-02-21T06:21:29;12.70;72.90
11387;DHT22;5748;53.102;8.456;2024-02-21T06:23:56;12.70;72.90
11387;DHT22;5748;53.102;8.456;2024-02-21T06:26:23;12.70;73.50
11387;DHT22;5748;53.102;8.456;2024-02-21T06:28:52;12.90;74.00
11387;DHT22;5748;53.102;8.456;2024-02-21T06:31:19;12.70;73.80
11387;DHT22;5748;53.102;8.456;2024-02-21T06:33:46;12.70;73.80
11387;DHT22;5748;53.102;8.456;2024-02-21T06:36:13;12.70;73.60
11387;DHT22;5748;53.102;8.456;2024-02-21T06:38:40;12.80;73.70
11387;DHT22;5748;53.102;8.456;2024-02-21T06:41:14;13.10;74.00
11387;DHT22;5748;53.102;8.456;2024-02-21T06:43:42;12.70;73.90
11387;DHT22;5748;53.102;8.456;2024-02-21T06:46:10;12.80;73.70
11387;DHT22;5748;53.102;8.456;2024-02-21T06:51:05;12.80;73.40
11387;DHT22;5748;53.102;8.456;2024-02-21T06:53:32;12.80;73.40
11387;DHT22;5748;53.102;8.456;2024-02-21T06:55:59;12.80;74.00
11387;DHT22;5748;53.102;8.456;2024-02-21T07:00:53;12.80;73.30
11387;DHT22;5748;53.102;8.456;2024-02-21T07:03:21;12.80;73.20
11387;DHT22;5748;53.102;8.456;2024-02-21T07:05:49;12.80;73.80
11387;DHT22;5748;53.102;8.456;2024-02-21T07:08:16;12.80;73.60
11387;DHT22;5748;53.102;8.456;2024-02-21T07:10:43;12.80;73.40
11387;DHT22;5748;53.102;8.456;2024-02-21T07:13:11;12.80;73.60
11387;DHT22;5748;53.102;8.456;2024-02-21T07:15:38;12.80;74.50
11387;DHT22;5748;53.102;8.456;2024-02-21T07:18:05;12.90;73.90
11387;DHT22;5748;53.102;8.456;2024-02-21T07:20:34;12.80;73.30
11387;DHT22;5748;53.102;8.456;2024-02-21T07:23:03;12.80;73.70
11387;DHT22;5748;53.102;8.456;2024-02-21T07:25:30;12.80;73.80
11387;DHT22;5748;53.102;8.456;2024-02-21T07:27:57;12.80;73.70
11387;DHT22;5748;53.102;8.456;2024-02-21T07:30:24;12.80;73.80
11387;DHT22;5748;53.102;8.456;2024-02-21T07:32:51;12.70;73.80
11387;DHT22;5748;53.102;8.456;2024-02-21T07:35:18;12.80;73.90
11387;DHT22;5748;53.102;8.456;2024-02-21T07:37:47;12.90;74.10
11387;DHT22;5748;53.102;8.456;2024-02-21T07:40:14;12.90;74.10
11387;DHT22;5748;53.102;8.456;2024-02-21T07:42:41;12.90;74.20
11387;DHT22;5748;53.102;8.456;2024-02-21T07:45:09;12.90;74.20
11387;DHT22;5748;53.102;8.456;2024-02-21T07:47:37;13.10;74.40
11387;DHT22;5748;53.102;8.456;2024-02-21T07:50:04;13.00;74.40
11387;DHT22;5748;53.102;8.456;2024-02-21T07:52:32;13.10;74.40
11387;DHT22;5748;53.102;8.456;2024-02-21T07:55:01;13.20;74.30
11387;DHT22;5748;53.102;8.456;2024-02-21T07:57:29;13.20;74.30
11387;DHT22;5748;53.102;8.456;2024-02-21T07:59:56;13.20;74.20
11387;DHT22;5748;53.102;8.456;2024-02-21T08:02:23;13.20;74.10
11387;DHT22;5748;53.102;8.456;2024-02-21T08:04:50;13.20;74.10
11387;DHT22;5748;53.102;8.456;2024-02-21T08:12:13;13.30;73.70
11387;DHT22;5748;53.102;8.456;2024-02-21T08:14:40;13.30;74.20
11387;DHT22;5748;53.102;8.456;2024-02-21T08:17:07;13.40;74.20
11387;DHT22;5748;53.102;8.456;2024-02-21T08:19:34;13.40;74.20
11387;DHT22;5748;53.102;8.456;2024-02-21T08:22:01;13.50;74.20
11387;DHT22;5748;53.102;8.456;2024-02-21T08:24:28;13.40;74.10
11387;DHT22;5748;53.102;8.456;2024-02-21T08:26:55;13.50;74.20
11387;DHT22;5748;53.102;8.456;2024-02-21T08:29:24;13.50;74.30
11387;DHT22;5748;53.102;8.456;2024-02-21T08:31:51;13.50;74.20
11387;DHT22;5748;53.102;8.456;2024-02-21T08:34:18;13.50;74.10
11387;DHT22;5748;53.102;8.456;2024-02-21T08:36:45;13.60;75.10
11387;DHT22;5748;53.102;8.456;2024-02-21T08:41:42;13.60;73.70
11387;DHT22;5748;53.102;8.456;2024-02-21T08:44:09;13.60;74.10
11387;DHT22;5748;53.102;8.456;2024-02-21T08:46:38;13.70;74.10
11387;DHT22;5748;53.102;8.456;2024-02-21T08:49:06;13.70;74.10
11387;DHT22;5748;53.102;8.456;2024-02-21T08:51:33;13.70;74.00
11387;DHT22;5748;53.102;8.456;2024-02-21T08:54:01;13.70;74.10
11387;DHT22;5748;53.102;8.456;2024-02-21T08:56:30;13.70;73.80
11387;DHT22;5748;53.102;8.456;2024-02-21T08:58:57;13.60;73.70
11387;DHT22;5748;53.102;8.456;2024-02-21T09:01:24;13.70;73.80
11387;DHT22;5748;53.102;8.456;2024-02-21T09:03:52;13.70;73.80
11387;DHT22;5748;53.102;8.456;2024-02-21T09:06:19;13.60;73.70
11387;DHT22;5748;53.102;8.456;2024-02-21T09:08:46;13.60;73.70
11387;DHT22;5748;53.102;8.456;2024-02-21T09:11:14;13.60;73.60
11387;DHT22;5748;53.102;8.456;2024-02-21T09:13:41;13.60;73.70
11387;DHT22;5748;53.102;8.456;2024-02-21T09:16:08;13.60;73.70
11387;DHT22;5748;53.102;8.456;2024-02-21T09:18:35;13.60;73.60
11387;DHT22;5748;53.102;8.456;2024-02-21T09:21:04;13.70;73.20
11387;DHT22;5748;53.102;8.456;2024-02-21T09:23:31;13.70;73.60
11387;DHT22;5748;53.102;8.456;2024-02-21T09:25:58;13.70;73.50
11387;DHT22;5748;53.102;8.456;2024-02-21T09:28:26;13.70;73.40
11387;DHT22;5748;53.102;8.456;2024-02-21T09:30:53;13.60;73.20
11387;DHT22;5748;53.102;8.456;2024-02-21T09:33:20;13.60;73.30
11387;DHT22;5748;53.102;8.456;2024-02-21T09:35:47;13.60;73.20
11387;DHT22;5748;53.102;8.456;2024-02-21T09:38:15;13.60;73.20
11387;DHT22;5748;53.102;8.456;2024-02-21T09:40:42;13.60;72.70
11387;DHT22;5748;53.102;8.456;2024-02-21T09:43:09;13.50;73.10
11387;DHT22;5748;53.102;8.456;2024-02-21T09:45:38;13.50;73.20
11387;DHT22;5748;53.102;8.456;2024-02-21T09:48:39;13.60;73.30
11387;DHT22;5748;53.102;8.456;2024-02-21T09:51:12;13.50;73.30
11387;DHT22;5748;53.102;8.456;2024-02-21T09:53:43;13.60;73.40
11387;DHT22;5748;53.102;8.456;2024-02-21T09:56:11;13.50;73.20
11387;DHT22;5748;53.102;8.456;2024-02-21T09:58:39;13.50;73.20
11387;DHT22;5748;53.102;8.456;2024-02-21T10:01:06;13.60;73.30
11387;DHT22;5748;53.102;8.456;2024-02-21T10:03:34;13.50;73.30
11387;DHT22;5748;53.102;8.456;2024-02-21T10:06:01;13.50;73.30
11387;DHT22;5748;53.102;8.456;2024-02-21T10:08:28;13.50;73.30
11387;DHT22;5748;53.102;8.456;2024-02-21T10:10:57;13.50;73.40
11387;DHT22;5748;53.102;8.456;2024-02-21T10:13:26;13.60;73.60
11387;DHT22;5748;53.102;8.456;2024-02-21T10:16:04;13.60;73.60
11387;DHT22;5748;53.102;8.456;2024-02-21T10:18:32;13.60;73.40
11387;DHT22;5748;53.102;8.456;2024-02-21T10:21:04;13.60;73.40
11387;DHT22;5748;53.102;8.456;2024-02-21T10:23:42;13.60;73.60
11387;DHT22;5748;53.102;8.456;2024-02-21T10:26:11;13.70;73.70
11387;DHT22;5748;53.102;8.456;2024-02-21T10:28:38;13.70;73.50
11387;DHT22;5748;53.102;8.456;2024-02-21T10:31:08;13.70;73.40
11387;DHT22;5748;53.102;8.456;2024-02-21T10:33:36;13.70;73.50
11387;DHT22;5748;53.102;8.456;2024-02-21T10:36:07;13.80;73.50
11387;DHT22;5748;53.102;8.456;2024-02-21T10:38:36;13.70;73.30
11387;DHT22;5748;53.102;8.456;2024-02-21T10:41:05;13.80;73.40
11387;DHT22;5748;53.102;8.456;2024-02-21T10:43:40;13.80;73.40
11387;DHT22;5748;53.102;8.456;2024-02-21T10:46:08;13.80;73.10
11387;DHT22;5748;53.102;8.456;2024-02-21T10:48:42;13.80;73.40
11387;DHT22;5748;53.102;8.456;2024-02-21T10:51:15;13.90;73.10
11387;DHT22;5748;53.102;8.456;2024-02-21T10:53:52;13.90;73.30
11387;DHT22;5748;53.102;8.456;2024-02-21T10:56:28;13.90;73.30
11387;DHT22;5748;53.102;8.456;2024-02-21T10:58:58;14.00;73.50
11387;DHT22;5748;53.102;8.456;2024-02-21T11:01:28;14.00;73.20
11387;DHT22;5748;53.102;8.456;2024-02-21T11:03:59;14.10;73.70
11387;DHT22;5748;53.102;8.456;2024-02-21T11:06:28;14.10;74.00
11387;DHT22;5748;53.102;8.456;2024-02-21T11:09:02;14.20;73.90
11387;DHT22;5748;53.102;8.456;2024-02-21T11:11:33;14.30;74.30
11387;DHT22;5748;53.102;8.456;2024-02-21T11:14:09;14.50;74.60
11387;DHT22;5748;53.102;8.456;2024-02-21T11:16:37;14.60;74.50
11387;DHT22;5748;53.102;8.456;2024-02-21T11:19:06;14.80;74.70
11387;DHT22;5748;53.102;8.456;2024-02-21T11:21:34;15.00;74.80
11387;DHT22;5748;53.102;8.456;2024-02-21T11:24:02;15.10;74.40
11387;DHT22;5748;53.102;8.456;2024-02-21T11:26:30;15.20;73.60
11387;DHT22;5748;53.102;8.456;2024-02-21T11:28:58;15.30;73.10
11387;DHT22;5748;53.102;8.456;2024-02-21T11:31:27;15.40;71.70
11387;DHT22;5748;53.102;8.456;2024-02-21T11:34:05;15.40;71.70
11387;DHT22;5748;53.102;8.456;2024-02-21T11:36:32;15.40;71.80
11387;DHT22;5748;53.102;8.456;2024-02-21T11:39:03;15.40;71.90
11387;DHT22;5748;53.102;8.456;2024-02-21T11:41:31;15.50;72.10
11387;DHT22;5748;53.102;8.456;2024-02-21T11:43:58;15.50;72.40
11387;DHT22;5748;53.102;8.456;2024-02-21T11:46:26;15.50;72.00
11387;DHT22;5748;53.102;8.456;2024-02-21T11:48:53;15.50;71.90
11387;DHT22;5748;53.102;8.456;2024-02-21T11:51:22;15.50;71.60
11387;DHT22;5748;53.102;8.456;2024-02-21T11:53:52;15.50;71.30
11387;DHT22;5748;53.102;8.456;2024-02-21T11:56:19;15.50;71.20
11387;DHT22;5748;53.102;8.456;2024-02-21T11:58:48;15.60;71.10
11387;DHT22;5748;53.102;8.456;2024-02-21T12:01:15;15.50;71.10
11387;DHT22;5748;53.102;8.456;2024-02-21T12:03:43;15.40;70.20
11387;DHT22;5748;53.102;8.456;2024-02-21T12:06:16;15.50;70.70
11387;DHT22;5748;53.102;8.456;2024-02-21T12:08:47;15.50;71.70
11387;DHT22;5748;53.102;8.456;2024-02-21T12:11:21;15.50;71.20
11387;DHT22;5748;53.102;8.456;2024-02-21T12:13:59;15.50;70.80
11387;DHT22;5748;53.102;8.456;2024-02-21T12:16:28;15.50;70.60
11387;DHT22;5748;53.102;8.456;2024-02-21T12:18:57;15.50;70.50
11387;DHT22;5748;53.102;8.456;2024-02-21T12:21:24;15.50;70.50
11387;DHT22;5748;53.102;8.456;2024-02-21T12:23:53;15.50;70.50
11387;DHT22;5748;53.102;8.456;2024-02-21T12:26:20;15.50;70.10
11387;DHT22;5748;53.102;8.456;2024-02-21T12:28:48;15.50;69.60
11387;DHT22;5748;53.102;8.456;2024-02-21T12:31:15;15.50;70.20
11387;DHT22;5748;53.102;8.456;2024-02-21T12:33:43;15.40;69.80
11387;DHT22;5748;53.102;8.456;2024-02-21T12:36:11;15.40;69.80
11387;DHT22;5748;53.102;8.456;2024-02-21T12:38:38;15.40;70.00
11387;DHT22;5748;53.102;8.456;2024-02-21T12:41:05;15.30;70.10
11387;DHT22;5748;53.102;8.456;2024-02-21T12:43:33;15.30;70.00
11387;DHT22;5748;53.102;8.456;2024-02-21T12:46:00;15.30;70.00
11387;DHT22;5748;53.102;8.456;2024-02-21T12:48:28;15.30;69.80
11387;DHT22;5748;53.102;8.456;2024-02-21T12:50:55;15.30;69.70
11387;DHT22;5748;53.102;8.456;2024-02-21T12:53:23;15.20;69.40
11387;DHT22;5748;53.102;8.456;2024-02-21T12:55:50;15.20;69.60
11387;DHT22;5748;53.102;8.456;2024-02-21T12:58:17;15.20;69.70
11387;DHT22;5748;53.102;8.456;2024-02-21T13:00:44;15.20;70.50
11387;DHT22;5748;53.102;8.456;2024-02-21T13:03:11;15.20;70.00
11387;DHT22;5748;53.102;8.456;2024-02-21T13:05:39;15.20;70.00
11387;DHT22;5748;53.102;8.456;2024-02-21T13:08:06;15.20;69.70
11387;DHT22;5748;53.102;8.456;2024-02-21T13:10:35;15.20;68.20
11387;DHT22;5748;53.102;8.456;2024-02-21T13:13:02;15.20;68.70
11387;DHT22;5748;53.102;8.456;2024-02-21T13:15:29;15.20;68.70
11387;DHT22;5748;53.102;8.456;2024-02-21T13:17:57;15.20;69.10
11387;DHT22;5748;53.102;8.456;2024-02-21T13:20:24;15.20;69.40
11387;DHT22;5748;53.102;8.456;2024-02-21T13:22:52;15.20;69.30
11387;DHT22;5748;53.102;8.456;2024-02-21T13:25:19;15.20;69.50
11387;DHT22;5748;53.102;8.456;2024-02-21T13:27:48;15.20;69.30
11387;DHT22;5748;53.102;8.456;2024-02-21T13:30:15;15.20;69.20
11387;DHT22;5748;53.102;8.456;2024-02-21T13:32:43;15.10;69.10
11387;DHT22;5748;53.102;8.456;2024-02-21T13:35:11;15.20;69.40
11387;DHT22;5748;53.102;8.456;2024-02-21T13:37:39;15.20;69.60
11387;DHT22;5748;53.102;8.456;2024-02-21T13:40:07;15.20;69.50
11387;DHT22;5748;53.102;8.456;2024-02-21T13:42:35;15.20;68.90
11387;DHT22;5748;53.102;8.456;2024-02-21T13:45:05;15.20;69.10
11387;DHT22;5748;53.102;8.456;2024-02-21T13:47:33;15.10;68.50
11387;DHT22;5748;53.102;8.456;2024-02-21T13:50:01;15.10;68.90
11387;DHT22;5748;53.102;8.456;2024-02-21T13:52:29;15.10;68.80
11387;DHT22;5748;53.102;8.456;2024-02-21T13:54:57;15.10;69.80
11387;DHT22;5748;53.102;8.456;2024-02-21T13:57:24;15.10;68.90
11387;DHT22;5748;53.102;8.456;2024-02-21T14:02:20;15.00;67.70
11387;DHT22;5748;53.102;8.456;2024-02-21T14:04:47;15.00;68.60
11387;DHT22;5748;53.102;8.456;2024-02-21T14:07:14;15.00;68.80
11387;DHT22;5748;53.102;8.456;2024-02-21T14:12:10;15.00;68.20
11387;DHT22;5748;53.102;8.456;2024-02-21T14:14:37;15.00;68.60
11387;DHT22;5748;53.102;8.456;2024-02-21T14:17:04;15.00;68.50
11387;DHT22;5748;53.102;8.456;2024-02-21T14:19:33;15.00;68.80
11387;DHT22;5748;53.102;8.456;2024-02-21T14:22:00;15.00;68.20
11387;DHT22;5748;53.102;8.456;2024-02-21T14:24:27;14.90;68.30
11387;DHT22;5748;53.102;8.456;2024-02-21T14:26:54;14.90;68.60
11387;DHT22;5748;53.102;8.456;2024-02-21T14:29:22;14.90;68.40
11387;DHT22;5748;53.102;8.456;2024-02-21T14:31:49;14.90;68.50
11387;DHT22;5748;53.102;8.456;2024-02-21T14:34:16;14.80;68.20
11387;DHT22;5748;53.102;8.456;2024-02-21T14:36:44;14.80;68.30
11387;DHT22;5748;53.102;8.456;2024-02-21T14:39:11;14.80;67.60
11387;DHT22;5748;53.102;8.456;2024-02-21T14:41:38;14.70;67.80
11387;DHT22;5748;53.102;8.456;2024-02-21T14:44:05;14.70;67.60
11387;DHT22;5748;53.102;8.456;2024-02-21T14:46:36;14.70;67.80
11387;DHT22;5748;53.102;8.456;2024-02-21T14:49:04;14.60;68.70
11387;DHT22;5748;53.102;8.456;2024-02-21T14:51:31;14.60;67.90
11387;DHT22;5748;53.102;8.456;2024-02-21T14:54:00;13.90;66.90
11387;DHT22;5748;53.102;8.456;2024-02-21T14:56:27;14.60;68.10
11387;DHT22;5748;53.102;8.456;2024-02-21T14:58:54;14.60;68.10
11387;DHT22;5748;53.102;8.456;2024-02-21T15:01:21;14.50;67.70
11387;DHT22;5748;53.102;8.456;2024-02-21T15:03:48;14.50;68.00
11387;DHT22;5748;53.102;8.456;2024-02-21T15:06:17;14.50;67.50
11387;DHT22;5748;53.102;8.456;2024-02-21T15:08:44;14.50;67.90
11387;DHT22;5748;53.102;8.456;2024-02-21T15:11:12;14.50;67.90
11387;DHT22;5748;53.102;8.456;2024-02-21T15:13:39;14.50;67.90
11387;DHT22;5748;53.102;8.456;2024-02-21T15:16:06;14.50;68.70
11387;DHT22;5748;53.102;8.456;2024-02-21T15:18:33;14.40;67.90
11387;DHT22;5748;53.102;8.456;2024-02-21T15:21:04;14.50;67.80
11387;DHT22;5748;53.102;8.456;2024-02-21T15:23:32;14.40;67.90
11387;DHT22;5748;53.102;8.456;2024-02-21T15:26:00;14.40;67.60
11387;DHT22;5748;53.102;8.456;2024-02-21T15:28:28;14.40;67.50
11387;DHT22;5748;53.102;8.456;2024-02-21T15:30:55;14.40;67.30
11387;DHT22;5748;53.102;8.456;2024-02-21T15:33:22;14.40;67.60
11387;DHT22;5748;53.102;8.456;2024-02-21T15:35:49;14.30;67.60
11387;DHT22;5748;53.102;8.456;2024-02-21T15:38:16;14.30;67.70
11387;DHT22;5748;53.102;8.456;2024-02-21T15:40:44;14.30;66.90
11387;DHT22;5748;53.102;8.456;2024-02-21T15:43:11;14.30;67.60
11387;DHT22;5748;53.102;8.456;2024-02-21T15:45:40;14.20;67.30
11387;DHT22;5748;53.102;8.456;2024-02-21T15:48:07;14.20;67.50
11387;DHT22;5748;53.102;8.456;2024-02-21T15:50:34;14.10;67.00
11387;DHT22;5748;53.102;8.456;2024-02-21T15:53:03;14.10;67.50
11387;DHT22;5748;53.102;8.456;2024-02-21T15:55:30;14.10;67.50
11387;DHT22;5748;53.102;8.456;2024-02-21T15:57:57;14.10;67.50
11387;DHT22;5748;53.102;8.456;2024-02-21T16:00:24;14.00;67.50
11387;DHT22;5748;53.102;8.456;2024-02-21T16:02:52;14.10;67.50
11387;DHT22;5748;53.102;8.456;2024-02-21T16:05:19;14.00;67.40
11387;DHT22;5748;53.102;8.456;2024-02-21T16:07:47;13.90;67.20
11387;DHT22;5748;53.102;8.456;2024-02-21T16:10:13;13.90;67.40
11387;DHT22;5748;53.102;8.456;2024-02-21T16:12:40;13.90;67.40
11387;DHT22;5748;53.102;8.456;2024-02-21T16:15:08;13.80;67.30
11387;DHT22;5748;53.102;8.456;2024-02-21T16:17:37;13.80;67.50
11387;DHT22;5748;53.102;8.456;2024-02-21T16:20:07;13.90;67.60
11387;DHT22;5748;53.102;8.456;2024-02-21T16:22:35;13.80;67.40
11387;DHT22;5748;53.102;8.456;2024-02-21T16:25:03;13.80;67.40
11387;DHT22;5748;53.102;8.456;2024-02-21T16:27:31;13.70;67.10
11387;DHT22;5748;53.102;8.456;2024-02-21T16:29:58;13.70;67.20
11387;DHT22;5748;53.102;8.456;2024-02-21T16:32:25;13.70;67.40
11387;DHT22;5748;53.102;8.456;2024-02-21T16:34:53;13.60;67.30
11387;DHT22;5748;53.102;8.456;2024-02-21T16:37:22;13.60;67.50
11387;DHT22;5748;53.102;8.456;2024-02-21T16:39:48;13.60;66.90
11387;DHT22;5748;53.102;8.456;2024-02-21T16:42:17;13.60;67.10
11387;DHT22;5748;53.102;8.456;2024-02-21T16:44:44;13.60;67.30
11387;DHT22;5748;53.102;8.456;2024-02-21T16:47:11;13.50;67.30
11387;DHT22;5748;53.102;8.456;2024-02-21T16:49:38;13.50;67.40
11387;DHT22;5748;53.102;8.456;2024-02-21T16:52:05;13.40;66.70
11387;DHT22;5748;53.102;8.456;2024-02-21T16:54:34;13.80;70.20
11387;DHT22;5748;53.102;8.456;2024-02-21T16:57:01;13.40;68.10
11387;DHT22;5748;53.102;8.456;2024-02-21T16:59:28;13.40;67.30
11387;DHT22;5748;53.102;8.456;2024-02-21T17:01:55;13.40;67.30
11387;DHT22;5748;53.102;8.456;2024-02-21T17:04:22;13.40;67.20